sensor_id;sensor_type;location;lat;lon;timestamp;P1;durP1;ratioP1;P2;durP2;ratioP2
6282;SDS011;3174;53.486;9.568;2023-04-25T00:01:35;7.13;;;1.97;;
6282;SDS011;3174;53.486;9.568;2023-04-25T00:04:07;6.07;;;2.07;;
6282;SDS011;3174;53.486;9.568;2023-04-25T00:06:36;8.03;;;2.13;;
6282;SDS011;3174;53.486;9.568;2023-04-25T00:09:04;5.30;;;2.00;;
6282;SDS011;3174;53.486;9.568;2023-04-25T00:11:33;5.77;;;1.77;;
6282;SDS011;3174;53.486;9.568;2023-04-25T00:14:01;9.13;;;1.80;;
6282;SDS011;3174;53.486;9.568;2023-04-25T00:16:30;18.33;;;3.47;;
6282;SDS011;3174;53.486;9.568;2023-04-25T00:19:00;11.83;;;2.40;;
6282;SDS011;3174;53.486;9.568;2023-04-25T00:21:31;10.47;;;2.60;;
6282;SDS011;3174;53.486;9.568;2023-04-25T00:23:59;6.13;;;2.23;;
6282;SDS011;3174;53.486;9.568;2023-04-25T00:26:27;12.17;;;2.67;;
6282;SDS011;3174;53.486;9.568;2023-04-25T00:28:55;9.90;;;2.83;;
6282;SDS011;3174;53.486;9.568;2023-04-25T00:31:23;7.40;;;2.13;;
6282;SDS011;3174;53.486;9.568;2023-04-25T00:33:51;8.77;;;2.07;;
6282;SDS011;3174;53.486;9.568;2023-04-25T00:36:19;8.43;;;2.40;;
6282;SDS011;3174;53.486;9.568;2023-04-25T00:38:48;11.37;;;2.40;;
6282;SDS011;3174;53.486;9.568;2023-04-25T00:41:16;8.30;;;2.10;;
6282;SDS011;3174;53.486;9.568;2023-04-25T00:43:44;8.53;;;2.10;;
6282;SDS011;3174;53.486;9.568;2023-04-25T00:46:13;9.00;;;2.53;;
6282;SDS011;3174;53.486;9.568;2023-04-25T00:48:41;8.57;;;2.50;;
6282;SDS011;3174;53.486;9.568;2023-04-25T00:51:09;11.10;;;2.57;;
6282;SDS011;3174;53.486;9.568;2023-04-25T00:53:38;9.90;;;2.30;;
6282;SDS011;3174;53.486;9.568;2023-04-25T00:56:08;13.67;;;3.30;;
6282;SDS011;3174;53.486;9.568;2023-04-25T00:58:36;15.80;;;2.73;;
6282;SDS011;3174;53.486;9.568;2023-04-25T01:01:05;12.00;;;2.90;;
6282;SDS011;3174;53.486;9.568;2023-04-25T01:03:34;14.83;;;2.60;;
6282;SDS011;3174;53.486;9.568;2023-04-25T01:06:08;8.13;;;2.60;;
6282;SDS011;3174;53.486;9.568;2023-04-25T01:08:37;18.83;;;3.00;;
6282;SDS011;3174;53.486;9.568;2023-04-25T01:11:05;15.13;;;2.87;;
6282;SDS011;3174;53.486;9.568;2023-04-25T01:13:35;11.67;;;2.47;;
6282;SDS011;3174;53.486;9.568;2023-04-25T01:16:03;10.50;;;2.50;;
6282;SDS011;3174;53.486;9.568;2023-04-25T01:18:32;19.23;;;2.80;;
6282;SDS011;3174;53.486;9.568;2023-04-25T01:21:08;10.20;;;2.67;;
6282;SDS011;3174;53.486;9.568;2023-04-25T01:23:36;12.07;;;2.10;;
6282;SDS011;3174;53.486;9.568;2023-04-25T01:26:05;7.07;;;2.47;;
6282;SDS011;3174;53.486;9.568;2023-04-25T01:28:33;17.97;;;3.23;;
6282;SDS011;3174;53.486;9.568;2023-04-25T01:31:02;6.87;;;2.30;;
6282;SDS011;3174;53.486;9.568;2023-04-25T01:33:30;10.70;;;2.47;;
6282;SDS011;3174;53.486;9.568;2023-04-25T01:35:58;11.93;;;2.90;;
6282;SDS011;3174;53.486;9.568;2023-04-25T01:38:27;12.60;;;2.63;;
6282;SDS011;3174;53.486;9.568;2023-04-25T01:40:55;16.07;;;2.83;;
6282;SDS011;3174;53.486;9.568;2023-04-25T01:43:23;10.60;;;2.50;;
6282;SDS011;3174;53.486;9.568;2023-04-25T01:45:52;12.03;;;2.80;;
6282;SDS011;3174;53.486;9.568;2023-04-25T01:48:20;11.97;;;2.87;;
6282;SDS011;3174;53.486;9.568;2023-04-25T01:50:48;12.80;;;2.77;;
6282;SDS011;3174;53.486;9.568;2023-04-25T01:53:16;12.47;;;3.00;;
6282;SDS011;3174;53.486;9.568;2023-04-25T01:55:46;12.83;;;3.33;;
6282;SDS011;3174;53.486;9.568;2023-04-25T01:58:14;13.43;;;2.73;;
6282;SDS011;3174;53.486;9.568;2023-04-25T02:00:41;15.20;;;2.90;;
6282;SDS011;3174;53.486;9.568;2023-04-25T02:03:09;11.50;;;2.70;;
6282;SDS011;3174;53.486;9.568;2023-04-25T02:05:38;9.47;;;2.50;;
6282;SDS011;3174;53.486;9.568;2023-04-25T02:08:07;10.20;;;2.43;;
6282;SDS011;3174;53.486;9.568;2023-04-25T02:10:35;11.17;;;2.67;;
6282;SDS011;3174;53.486;9.568;2023-04-25T02:13:04;9.13;;;2.50;;
6282;SDS011;3174;53.486;9.568;2023-04-25T02:15:32;12.27;;;2.40;;
6282;SDS011;3174;53.486;9.568;2023-04-25T02:18:00;13.67;;;2.60;;
6282;SDS011;3174;53.486;9.568;2023-04-25T02:20:29;11.53;;;3.03;;
6282;SDS011;3174;53.486;9.568;2023-04-25T02:22:57;7.83;;;2.40;;
6282;SDS011;3174;53.486;9.568;2023-04-25T02:25:25;6.63;;;2.13;;
6282;SDS011;3174;53.486;9.568;2023-04-25T02:27:53;8.77;;;2.33;;
6282;SDS011;3174;53.486;9.568;2023-04-25T02:30:23;5.67;;;2.40;;
6282;SDS011;3174;53.486;9.568;2023-04-25T02:32:51;14.80;;;2.87;;
6282;SDS011;3174;53.486;9.568;2023-04-25T02:35:19;9.77;;;2.40;;
6282;SDS011;3174;53.486;9.568;2023-04-25T02:37:47;7.73;;;2.77;;
6282;SDS011;3174;53.486;9.568;2023-04-25T02:40:15;11.50;;;2.33;;
6282;SDS011;3174;53.486;9.568;2023-04-25T02:42:43;11.63;;;2.30;;
6282;SDS011;3174;53.486;9.568;2023-04-25T02:45:12;15.07;;;2.47;;
6282;SDS011;3174;53.486;9.568;2023-04-25T02:47:41;17.13;;;3.57;;
6282;SDS011;3174;53.486;9.568;2023-04-25T02:50:09;9.77;;;2.67;;
6282;SDS011;3174;53.486;9.568;2023-04-25T02:52:37;10.33;;;2.70;;
6282;SDS011;3174;53.486;9.568;2023-04-25T02:55:05;13.50;;;2.93;;
6282;SDS011;3174;53.486;9.568;2023-04-25T02:57:34;14.60;;;2.97;;
6282;SDS011;3174;53.486;9.568;2023-04-25T03:00:02;11.13;;;2.67;;
6282;SDS011;3174;53.486;9.568;2023-04-25T03:02:32;9.53;;;2.53;;
6282;SDS011;3174;53.486;9.568;2023-04-25T03:05:01;7.27;;;2.33;;
6282;SDS011;3174;53.486;9.568;2023-04-25T03:07:29;13.47;;;3.23;;
6282;SDS011;3174;53.486;9.568;2023-04-25T03:09:57;9.80;;;2.43;;
6282;SDS011;3174;53.486;9.568;2023-04-25T03:12:25;10.80;;;2.23;;
6282;SDS011;3174;53.486;9.568;2023-04-25T03:14:53;12.07;;;2.87;;
6282;SDS011;3174;53.486;9.568;2023-04-25T03:17:21;6.80;;;2.13;;
6282;SDS011;3174;53.486;9.568;2023-04-25T03:19:49;11.83;;;2.70;;
6282;SDS011;3174;53.486;9.568;2023-04-25T03:22:19;6.83;;;2.37;;
6282;SDS011;3174;53.486;9.568;2023-04-25T03:24:47;14.50;;;2.50;;
6282;SDS011;3174;53.486;9.568;2023-04-25T03:27:14;8.27;;;2.27;;
6282;SDS011;3174;53.486;9.568;2023-04-25T03:29:42;10.63;;;2.90;;
6282;SDS011;3174;53.486;9.568;2023-04-25T03:32:11;10.43;;;2.37;;
6282;SDS011;3174;53.486;9.568;2023-04-25T03:34:39;7.33;;;2.40;;
6282;SDS011;3174;53.486;9.568;2023-04-25T03:37:07;11.70;;;2.33;;
6282;SDS011;3174;53.486;9.568;2023-04-25T03:39:36;10.37;;;2.57;;
6282;SDS011;3174;53.486;9.568;2023-04-25T03:42:04;11.40;;;2.57;;
6282;SDS011;3174;53.486;9.568;2023-04-25T03:44:32;11.80;;;2.00;;
6282;SDS011;3174;53.486;9.568;2023-04-25T03:47:00;11.70;;;2.40;;
6282;SDS011;3174;53.486;9.568;2023-04-25T03:49:28;11.10;;;2.40;;
6282;SDS011;3174;53.486;9.568;2023-04-25T03:51:56;11.27;;;2.60;;
6282;SDS011;3174;53.486;9.568;2023-04-25T03:54:24;7.37;;;2.50;;
6282;SDS011;3174;53.486;9.568;2023-04-25T03:56:54;7.77;;;2.00;;
6282;SDS011;3174;53.486;9.568;2023-04-25T03:59:21;9.30;;;2.07;;
6282;SDS011;3174;53.486;9.568;2023-04-25T04:01:49;9.97;;;2.53;;
6282;SDS011;3174;53.486;9.568;2023-04-25T04:04:17;13.93;;;2.80;;
6282;SDS011;3174;53.486;9.568;2023-04-25T04:06:46;5.00;;;2.10;;
6282;SDS011;3174;53.486;9.568;2023-04-25T04:09:14;7.80;;;2.53;;
6282;SDS011;3174;53.486;9.568;2023-04-25T04:11:43;9.10;;;2.20;;
6282;SDS011;3174;53.486;9.568;2023-04-25T04:14:12;7.90;;;1.97;;
6282;SDS011;3174;53.486;9.568;2023-04-25T04:16:40;9.50;;;3.13;;
6282;SDS011;3174;53.486;9.568;2023-04-25T04:19:08;5.00;;;2.23;;
6282;SDS011;3174;53.486;9.568;2023-04-25T04:21:36;7.83;;;2.07;;
6282;SDS011;3174;53.486;9.568;2023-04-25T04:24:04;5.13;;;1.67;;
6282;SDS011;3174;53.486;9.568;2023-04-25T04:26:33;9.17;;;2.43;;
6282;SDS011;3174;53.486;9.568;2023-04-25T04:29:01;5.80;;;1.60;;
6282;SDS011;3174;53.486;9.568;2023-04-25T04:31:30;6.13;;;2.30;;
6282;SDS011;3174;53.486;9.568;2023-04-25T04:33:59;9.90;;;2.10;;
6282;SDS011;3174;53.486;9.568;2023-04-25T04:36:28;4.73;;;1.87;;
6282;SDS011;3174;53.486;9.568;2023-04-25T04:38:55;5.23;;;2.07;;
6282;SDS011;3174;53.486;9.568;2023-04-25T04:41:23;9.13;;;2.10;;
6282;SDS011;3174;53.486;9.568;2023-04-25T04:43:51;9.13;;;2.30;;
6282;SDS011;3174;53.486;9.568;2023-04-25T04:46:19;6.70;;;2.17;;
6282;SDS011;3174;53.486;9.568;2023-04-25T04:48:49;6.23;;;2.10;;
6282;SDS011;3174;53.486;9.568;2023-04-25T04:51:17;10.47;;;2.53;;
6282;SDS011;3174;53.486;9.568;2023-04-25T04:53:46;7.40;;;2.03;;
6282;SDS011;3174;53.486;9.568;2023-04-25T04:56:15;7.73;;;2.60;;
6282;SDS011;3174;53.486;9.568;2023-04-25T04:58:43;7.13;;;2.13;;
6282;SDS011;3174;53.486;9.568;2023-04-25T05:01:10;9.37;;;2.13;;
6282;SDS011;3174;53.486;9.568;2023-04-25T05:03:38;9.40;;;2.00;;
6282;SDS011;3174;53.486;9.568;2023-04-25T05:06:08;7.10;;;1.90;;
6282;SDS011;3174;53.486;9.568;2023-04-25T05:08:36;7.30;;;1.80;;
6282;SDS011;3174;53.486;9.568;2023-04-25T05:11:04;9.27;;;2.17;;
6282;SDS011;3174;53.486;9.568;2023-04-25T05:13:32;6.13;;;2.00;;
6282;SDS011;3174;53.486;9.568;2023-04-25T05:16:00;7.77;;;2.03;;
6282;SDS011;3174;53.486;9.568;2023-04-25T05:18:28;14.23;;;2.30;;
6282;SDS011;3174;53.486;9.568;2023-04-25T05:20:56;5.57;;;1.77;;
6282;SDS011;3174;53.486;9.568;2023-04-25T05:23:25;5.00;;;2.03;;
6282;SDS011;3174;53.486;9.568;2023-04-25T05:25:54;5.87;;;2.07;;
6282;SDS011;3174;53.486;9.568;2023-04-25T05:28:22;6.53;;;1.53;;
6282;SDS011;3174;53.486;9.568;2023-04-25T05:30:50;5.50;;;1.70;;
6282;SDS011;3174;53.486;9.568;2023-04-25T05:33:18;7.00;;;2.03;;
6282;SDS011;3174;53.486;9.568;2023-04-25T05:35:46;9.50;;;1.70;;
6282;SDS011;3174;53.486;9.568;2023-04-25T05:38:14;12.57;;;2.67;;
6282;SDS011;3174;53.486;9.568;2023-04-25T05:40:44;5.63;;;1.60;;
6282;SDS011;3174;53.486;9.568;2023-04-25T05:43:12;6.37;;;1.93;;
6282;SDS011;3174;53.486;9.568;2023-04-25T05:45:40;8.07;;;2.10;;
6282;SDS011;3174;53.486;9.568;2023-04-25T05:48:08;5.87;;;2.17;;
6282;SDS011;3174;53.486;9.568;2023-04-25T05:50:36;8.23;;;2.70;;
6282;SDS011;3174;53.486;9.568;2023-04-25T05:53:04;6.83;;;1.63;;
6282;SDS011;3174;53.486;9.568;2023-04-25T05:55:32;5.43;;;1.83;;
6282;SDS011;3174;53.486;9.568;2023-04-25T05:58:01;8.70;;;1.97;;
6282;SDS011;3174;53.486;9.568;2023-04-25T06:00:29;5.87;;;1.80;;
6282;SDS011;3174;53.486;9.568;2023-04-25T06:02:57;11.17;;;2.43;;
6282;SDS011;3174;53.486;9.568;2023-04-25T06:05:26;9.90;;;1.80;;
6282;SDS011;3174;53.486;9.568;2023-04-25T06:07:54;7.73;;;1.77;;
6282;SDS011;3174;53.486;9.568;2023-04-25T06:10:22;10.60;;;2.17;;
6282;SDS011;3174;53.486;9.568;2023-04-25T06:12:50;8.83;;;1.93;;
6282;SDS011;3174;53.486;9.568;2023-04-25T06:15:19;5.10;;;1.50;;
6282;SDS011;3174;53.486;9.568;2023-04-25T06:17:54;7.67;;;2.23;;
6282;SDS011;3174;53.486;9.568;2023-04-25T06:20:22;9.17;;;2.40;;
6282;SDS011;3174;53.486;9.568;2023-04-25T06:22:51;43.77;;;21.00;;
6282;SDS011;3174;53.486;9.568;2023-04-25T06:25:19;86.67;;;29.13;;
6282;SDS011;3174;53.486;9.568;2023-04-25T06:27:47;19.37;;;7.40;;
6282;SDS011;3174;53.486;9.568;2023-04-25T06:30:15;15.87;;;5.20;;
6282;SDS011;3174;53.486;9.568;2023-04-25T06:32:46;15.33;;;5.83;;
6282;SDS011;3174;53.486;9.568;2023-04-25T06:35:14;9.00;;;3.17;;
6282;SDS011;3174;53.486;9.568;2023-04-25T06:37:42;12.20;;;3.47;;
6282;SDS011;3174;53.486;9.568;2023-04-25T06:40:10;10.63;;;3.93;;
6282;SDS011;3174;53.486;9.568;2023-04-25T06:42:38;19.57;;;4.50;;
6282;SDS011;3174;53.486;9.568;2023-04-25T06:45:06;7.93;;;2.17;;
6282;SDS011;3174;53.486;9.568;2023-04-25T06:47:35;7.17;;;2.57;;
6282;SDS011;3174;53.486;9.568;2023-04-25T06:50:05;8.63;;;2.53;;
6282;SDS011;3174;53.486;9.568;2023-04-25T06:52:33;5.63;;;2.23;;
6282;SDS011;3174;53.486;9.568;2023-04-25T06:55:01;6.07;;;1.80;;
6282;SDS011;3174;53.486;9.568;2023-04-25T06:57:31;8.83;;;2.33;;
6282;SDS011;3174;53.486;9.568;2023-04-25T06:59:59;8.17;;;2.30;;
6282;SDS011;3174;53.486;9.568;2023-04-25T07:02:27;5.10;;;2.00;;
6282;SDS011;3174;53.486;9.568;2023-04-25T07:04:56;9.40;;;2.00;;
6282;SDS011;3174;53.486;9.568;2023-04-25T07:07:27;6.27;;;2.63;;
6282;SDS011;3174;53.486;9.568;2023-04-25T07:09:55;8.20;;;3.03;;
6282;SDS011;3174;53.486;9.568;2023-04-25T07:12:23;6.73;;;2.83;;
6282;SDS011;3174;53.486;9.568;2023-04-25T07:14:51;7.33;;;2.97;;
6282;SDS011;3174;53.486;9.568;2023-04-25T07:17:19;8.33;;;2.97;;
6282;SDS011;3174;53.486;9.568;2023-04-25T07:19:48;5.97;;;1.90;;
6282;SDS011;3174;53.486;9.568;2023-04-25T07:22:16;5.07;;;1.57;;
6282;SDS011;3174;53.486;9.568;2023-04-25T07:24:45;9.33;;;2.53;;
6282;SDS011;3174;53.486;9.568;2023-04-25T07:27:15;6.13;;;2.57;;
6282;SDS011;3174;53.486;9.568;2023-04-25T07:29:43;5.53;;;2.13;;
6282;SDS011;3174;53.486;9.568;2023-04-25T07:32:11;3.17;;;1.57;;
6282;SDS011;3174;53.486;9.568;2023-04-25T07:34:40;3.23;;;1.30;;
6282;SDS011;3174;53.486;9.568;2023-04-25T07:37:08;4.93;;;1.30;;
6282;SDS011;3174;53.486;9.568;2023-04-25T07:39:36;3.90;;;1.30;;
6282;SDS011;3174;53.486;9.568;2023-04-25T07:42:06;4.03;;;1.40;;
6282;SDS011;3174;53.486;9.568;2023-04-25T07:44:34;3.43;;;1.50;;
6282;SDS011;3174;53.486;9.568;2023-04-25T07:47:05;4.17;;;1.63;;
6282;SDS011;3174;53.486;9.568;2023-04-25T07:49:34;6.67;;;1.70;;
6282;SDS011;3174;53.486;9.568;2023-04-25T07:52:02;8.90;;;1.67;;
6282;SDS011;3174;53.486;9.568;2023-04-25T07:54:31;5.37;;;1.80;;
6282;SDS011;3174;53.486;9.568;2023-04-25T07:56:59;4.33;;;1.40;;
6282;SDS011;3174;53.486;9.568;2023-04-25T07:59:28;7.67;;;1.50;;
6282;SDS011;3174;53.486;9.568;2023-04-25T08:01:57;6.63;;;1.67;;
6282;SDS011;3174;53.486;9.568;2023-04-25T08:04:24;6.73;;;1.20;;
6282;SDS011;3174;53.486;9.568;2023-04-25T08:06:53;4.00;;;1.03;;
6282;SDS011;3174;53.486;9.568;2023-04-25T08:09:21;5.10;;;1.50;;
6282;SDS011;3174;53.486;9.568;2023-04-25T08:11:49;3.23;;;1.30;;
6282;SDS011;3174;53.486;9.568;2023-04-25T08:14:17;23.80;;;11.57;;
6282;SDS011;3174;53.486;9.568;2023-04-25T08:16:46;11.17;;;6.07;;
6282;SDS011;3174;53.486;9.568;2023-04-25T08:19:14;11.20;;;6.17;;
6282;SDS011;3174;53.486;9.568;2023-04-25T08:21:42;7.53;;;3.83;;
6282;SDS011;3174;53.486;9.568;2023-04-25T08:24:10;7.23;;;2.30;;
6282;SDS011;3174;53.486;9.568;2023-04-25T08:26:37;5.63;;;1.80;;
6282;SDS011;3174;53.486;9.568;2023-04-25T08:29:06;3.83;;;1.60;;
6282;SDS011;3174;53.486;9.568;2023-04-25T08:31:34;6.30;;;1.30;;
6282;SDS011;3174;53.486;9.568;2023-04-25T08:34:04;6.30;;;1.67;;
6282;SDS011;3174;53.486;9.568;2023-04-25T08:36:32;2.80;;;1.20;;
6282;SDS011;3174;53.486;9.568;2023-04-25T08:39:05;5.37;;;2.13;;
6282;SDS011;3174;53.486;9.568;2023-04-25T08:41:33;5.67;;;1.20;;
6282;SDS011;3174;53.486;9.568;2023-04-25T08:44:02;2.17;;;1.07;;
6282;SDS011;3174;53.486;9.568;2023-04-25T08:46:30;2.83;;;1.43;;
6282;SDS011;3174;53.486;9.568;2023-04-25T08:49:00;2.77;;;1.20;;
6282;SDS011;3174;53.486;9.568;2023-04-25T08:51:30;4.97;;;1.17;;
6282;SDS011;3174;53.486;9.568;2023-04-25T08:54:01;3.63;;;1.27;;
6282;SDS011;3174;53.486;9.568;2023-04-25T08:56:56;3.47;;;1.07;;
6282;SDS011;3174;53.486;9.568;2023-04-25T08:59:25;8.37;;;1.47;;
6282;SDS011;3174;53.486;9.568;2023-04-25T09:01:53;5.07;;;1.13;;
6282;SDS011;3174;53.486;9.568;2023-04-25T09:04:22;3.47;;;1.17;;
6282;SDS011;3174;53.486;9.568;2023-04-25T09:06:52;6.17;;;1.53;;
6282;SDS011;3174;53.486;9.568;2023-04-25T09:09:20;4.73;;;1.73;;
6282;SDS011;3174;53.486;9.568;2023-04-25T09:11:48;3.00;;;1.10;;
6282;SDS011;3174;53.486;9.568;2023-04-25T09:14:16;4.47;;;1.53;;
6282;SDS011;3174;53.486;9.568;2023-04-25T09:16:59;6.67;;;2.10;;
6282;SDS011;3174;53.486;9.568;2023-04-25T09:19:29;7.53;;;1.50;;
6282;SDS011;3174;53.486;9.568;2023-04-25T09:22:07;3.97;;;1.70;;
6282;SDS011;3174;53.486;9.568;2023-04-25T09:24:36;4.47;;;1.60;;
6282;SDS011;3174;53.486;9.568;2023-04-25T09:27:05;1.97;;;1.20;;
6282;SDS011;3174;53.486;9.568;2023-04-25T09:29:34;4.50;;;1.43;;
6282;SDS011;3174;53.486;9.568;2023-04-25T09:32:10;10.87;;;2.13;;
6282;SDS011;3174;53.486;9.568;2023-04-25T09:34:40;3.73;;;1.13;;
6282;SDS011;3174;53.486;9.568;2023-04-25T09:37:10;4.37;;;1.40;;
6282;SDS011;3174;53.486;9.568;2023-04-25T09:39:39;1.70;;;0.93;;
6282;SDS011;3174;53.486;9.568;2023-04-25T09:42:07;3.87;;;1.50;;
6282;SDS011;3174;53.486;9.568;2023-04-25T09:44:36;4.23;;;1.50;;
6282;SDS011;3174;53.486;9.568;2023-04-25T09:47:05;6.53;;;1.20;;
6282;SDS011;3174;53.486;9.568;2023-04-25T09:49:38;7.07;;;1.57;;
6282;SDS011;3174;53.486;9.568;2023-04-25T09:52:07;1.80;;;1.07;;
6282;SDS011;3174;53.486;9.568;2023-04-25T09:54:37;4.90;;;1.30;;
6282;SDS011;3174;53.486;9.568;2023-04-25T09:57:07;6.10;;;1.73;;
6282;SDS011;3174;53.486;9.568;2023-04-25T09:59:39;8.97;;;1.40;;
6282;SDS011;3174;53.486;9.568;2023-04-25T10:02:11;5.77;;;1.00;;
6282;SDS011;3174;53.486;9.568;2023-04-25T10:04:39;6.07;;;1.37;;
6282;SDS011;3174;53.486;9.568;2023-04-25T10:07:08;3.47;;;1.47;;
6282;SDS011;3174;53.486;9.568;2023-04-25T10:09:38;4.13;;;1.00;;
6282;SDS011;3174;53.486;9.568;2023-04-25T10:12:07;2.80;;;1.03;;
6282;SDS011;3174;53.486;9.568;2023-04-25T10:14:35;5.10;;;1.30;;
6282;SDS011;3174;53.486;9.568;2023-04-25T10:17:03;3.67;;;1.13;;
6282;SDS011;3174;53.486;9.568;2023-04-25T10:19:31;6.07;;;1.30;;
6282;SDS011;3174;53.486;9.568;2023-04-25T10:22:04;2.90;;;0.80;;
6282;SDS011;3174;53.486;9.568;2023-04-25T10:24:35;3.83;;;1.47;;
6282;SDS011;3174;53.486;9.568;2023-04-25T10:27:04;2.93;;;1.13;;
6282;SDS011;3174;53.486;9.568;2023-04-25T10:29:33;5.73;;;1.10;;
6282;SDS011;3174;53.486;9.568;2023-04-25T10:32:01;6.37;;;1.20;;
6282;SDS011;3174;53.486;9.568;2023-04-25T10:34:39;5.70;;;1.00;;
6282;SDS011;3174;53.486;9.568;2023-04-25T10:37:08;7.27;;;1.40;;
6282;SDS011;3174;53.486;9.568;2023-04-25T10:39:38;2.40;;;1.00;;
6282;SDS011;3174;53.486;9.568;2023-04-25T10:42:08;3.80;;;0.87;;
6282;SDS011;3174;53.486;9.568;2023-04-25T10:44:37;2.87;;;1.10;;
6282;SDS011;3174;53.486;9.568;2023-04-25T10:47:06;3.37;;;1.00;;
6282;SDS011;3174;53.486;9.568;2023-04-25T10:49:36;6.67;;;1.30;;
6282;SDS011;3174;53.486;9.568;2023-04-25T10:52:16;7.83;;;1.60;;
6282;SDS011;3174;53.486;9.568;2023-04-25T10:54:48;1.93;;;0.90;;
6282;SDS011;3174;53.486;9.568;2023-04-25T10:57:35;2.53;;;0.90;;
6282;SDS011;3174;53.486;9.568;2023-04-25T11:00:05;6.70;;;1.23;;
6282;SDS011;3174;53.486;9.568;2023-04-25T11:02:38;1.70;;;1.10;;
6282;SDS011;3174;53.486;9.568;2023-04-25T11:05:09;3.53;;;1.07;;
6282;SDS011;3174;53.486;9.568;2023-04-25T11:07:38;4.90;;;1.10;;
6282;SDS011;3174;53.486;9.568;2023-04-25T11:10:08;3.03;;;1.13;;
6282;SDS011;3174;53.486;9.568;2023-04-25T11:12:38;2.53;;;1.07;;
6282;SDS011;3174;53.486;9.568;2023-04-25T11:15:07;3.67;;;1.40;;
6282;SDS011;3174;53.486;9.568;2023-04-25T11:17:35;4.20;;;1.80;;
6282;SDS011;3174;53.486;9.568;2023-04-25T11:20:06;3.23;;;1.27;;
6282;SDS011;3174;53.486;9.568;2023-04-25T11:22:38;4.43;;;1.47;;
6282;SDS011;3174;53.486;9.568;2023-04-25T11:25:08;4.67;;;1.50;;
6282;SDS011;3174;53.486;9.568;2023-04-25T11:27:39;4.00;;;1.17;;
6282;SDS011;3174;53.486;9.568;2023-04-25T11:30:17;4.87;;;1.37;;
6282;SDS011;3174;53.486;9.568;2023-04-25T11:32:47;4.27;;;1.10;;
6282;SDS011;3174;53.486;9.568;2023-04-25T11:35:15;3.77;;;1.30;;
6282;SDS011;3174;53.486;9.568;2023-04-25T11:37:44;3.10;;;1.23;;
6282;SDS011;3174;53.486;9.568;2023-04-25T11:40:12;8.57;;;1.40;;
6282;SDS011;3174;53.486;9.568;2023-04-25T11:42:44;3.53;;;1.57;;
6282;SDS011;3174;53.486;9.568;2023-04-25T11:45:13;2.70;;;1.40;;
6282;SDS011;3174;53.486;9.568;2023-04-25T11:47:42;3.63;;;1.03;;
6282;SDS011;3174;53.486;9.568;2023-04-25T11:50:10;4.67;;;0.87;;
6282;SDS011;3174;53.486;9.568;2023-04-25T11:52:41;2.60;;;0.97;;
6282;SDS011;3174;53.486;9.568;2023-04-25T11:55:10;6.30;;;1.30;;
6282;SDS011;3174;53.486;9.568;2023-04-25T11:57:41;7.00;;;1.47;;
6282;SDS011;3174;53.486;9.568;2023-04-25T12:00:13;4.17;;;1.13;;
6282;SDS011;3174;53.486;9.568;2023-04-25T12:02:45;5.00;;;1.27;;
6282;SDS011;3174;53.486;9.568;2023-04-25T12:05:15;5.30;;;1.40;;
6282;SDS011;3174;53.486;9.568;2023-04-25T12:07:46;3.70;;;1.00;;
6282;SDS011;3174;53.486;9.568;2023-04-25T12:10:14;3.30;;;1.40;;
6282;SDS011;3174;53.486;9.568;2023-04-25T12:12:44;1.20;;;0.67;;
6282;SDS011;3174;53.486;9.568;2023-04-25T12:15:15;2.83;;;0.90;;
6282;SDS011;3174;53.486;9.568;2023-04-25T12:17:46;4.17;;;1.03;;
6282;SDS011;3174;53.486;9.568;2023-04-25T12:20:15;3.20;;;0.70;;
6282;SDS011;3174;53.486;9.568;2023-04-25T12:22:44;5.20;;;1.07;;
6282;SDS011;3174;53.486;9.568;2023-04-25T12:25:17;5.10;;;1.13;;
6282;SDS011;3174;53.486;9.568;2023-04-25T12:28:09;2.37;;;0.90;;
6282;SDS011;3174;53.486;9.568;2023-04-25T12:30:57;5.30;;;1.27;;
6282;SDS011;3174;53.486;9.568;2023-04-25T12:33:28;1.97;;;0.97;;
6282;SDS011;3174;53.486;9.568;2023-04-25T12:35:57;2.00;;;0.80;;
6282;SDS011;3174;53.486;9.568;2023-04-25T12:38:26;2.40;;;1.07;;
6282;SDS011;3174;53.486;9.568;2023-04-25T12:40:55;2.90;;;1.13;;
6282;SDS011;3174;53.486;9.568;2023-04-25T12:43:24;3.93;;;1.10;;
6282;SDS011;3174;53.486;9.568;2023-04-25T12:45:52;9.17;;;2.67;;
6282;SDS011;3174;53.486;9.568;2023-04-25T12:48:22;3.63;;;1.70;;
6282;SDS011;3174;53.486;9.568;2023-04-25T12:50:51;4.17;;;1.47;;
6282;SDS011;3174;53.486;9.568;2023-04-25T12:53:19;4.20;;;1.30;;
6282;SDS011;3174;53.486;9.568;2023-04-25T12:55:49;2.53;;;1.20;;
6282;SDS011;3174;53.486;9.568;2023-04-25T12:58:18;2.53;;;1.20;;
6282;SDS011;3174;53.486;9.568;2023-04-25T13:00:47;3.87;;;1.23;;
6282;SDS011;3174;53.486;9.568;2023-04-25T13:03:15;3.50;;;1.07;;
6282;SDS011;3174;53.486;9.568;2023-04-25T13:05:45;4.67;;;1.37;;
6282;SDS011;3174;53.486;9.568;2023-04-25T13:08:13;8.47;;;1.50;;
6282;SDS011;3174;53.486;9.568;2023-04-25T13:10:41;2.23;;;1.07;;
6282;SDS011;3174;53.486;9.568;2023-04-25T13:13:09;3.57;;;1.10;;
6282;SDS011;3174;53.486;9.568;2023-04-25T13:15:37;4.53;;;1.03;;
6282;SDS011;3174;53.486;9.568;2023-04-25T13:18:05;5.00;;;1.03;;
6282;SDS011;3174;53.486;9.568;2023-04-25T13:20:34;5.03;;;1.30;;
6282;SDS011;3174;53.486;9.568;2023-04-25T13:23:03;5.20;;;1.20;;
6282;SDS011;3174;53.486;9.568;2023-04-25T13:25:31;2.60;;;1.23;;
6282;SDS011;3174;53.486;9.568;2023-04-25T13:27:59;2.73;;;0.90;;
6282;SDS011;3174;53.486;9.568;2023-04-25T13:30:27;4.30;;;0.80;;
6282;SDS011;3174;53.486;9.568;2023-04-25T13:32:55;5.60;;;1.20;;
6282;SDS011;3174;53.486;9.568;2023-04-25T13:35:24;1.50;;;0.83;;
6282;SDS011;3174;53.486;9.568;2023-04-25T13:37:52;2.80;;;0.93;;
6282;SDS011;3174;53.486;9.568;2023-04-25T13:40:22;3.83;;;1.57;;
6282;SDS011;3174;53.486;9.568;2023-04-25T13:42:51;3.00;;;1.00;;
6282;SDS011;3174;53.486;9.568;2023-04-25T13:45:19;1.67;;;1.10;;
6282;SDS011;3174;53.486;9.568;2023-04-25T13:47:47;2.77;;;1.00;;
6282;SDS011;3174;53.486;9.568;2023-04-25T13:50:15;4.30;;;1.03;;
6282;SDS011;3174;53.486;9.568;2023-04-25T13:52:43;4.07;;;1.20;;
6282;SDS011;3174;53.486;9.568;2023-04-25T13:55:11;3.03;;;1.20;;
6282;SDS011;3174;53.486;9.568;2023-04-25T13:57:40;2.80;;;1.23;;
6282;SDS011;3174;53.486;9.568;2023-04-25T14:00:09;2.50;;;1.00;;
6282;SDS011;3174;53.486;9.568;2023-04-25T14:02:38;2.33;;;1.00;;
6282;SDS011;3174;53.486;9.568;2023-04-25T14:05:06;5.03;;;1.03;;
6282;SDS011;3174;53.486;9.568;2023-04-25T14:07:36;3.93;;;1.13;;
6282;SDS011;3174;53.486;9.568;2023-04-25T14:10:04;4.50;;;1.33;;
6282;SDS011;3174;53.486;9.568;2023-04-25T14:12:33;3.17;;;0.87;;
6282;SDS011;3174;53.486;9.568;2023-04-25T14:15:03;1.80;;;0.83;;
6282;SDS011;3174;53.486;9.568;2023-04-25T14:17:31;4.40;;;1.03;;
6282;SDS011;3174;53.486;9.568;2023-04-25T14:19:59;6.17;;;2.83;;
6282;SDS011;3174;53.486;9.568;2023-04-25T14:22:27;3.37;;;1.10;;
6282;SDS011;3174;53.486;9.568;2023-04-25T14:24:55;6.93;;;1.50;;
6282;SDS011;3174;53.486;9.568;2023-04-25T14:27:24;2.00;;;1.03;;
6282;SDS011;3174;53.486;9.568;2023-04-25T14:29:54;3.57;;;0.93;;
6282;SDS011;3174;53.486;9.568;2023-04-25T14:32:24;7.73;;;1.53;;
6282;SDS011;3174;53.486;9.568;2023-04-25T14:34:52;1.67;;;1.10;;
6282;SDS011;3174;53.486;9.568;2023-04-25T14:37:20;5.63;;;1.43;;
6282;SDS011;3174;53.486;9.568;2023-04-25T14:39:48;7.43;;;1.50;;
6282;SDS011;3174;53.486;9.568;2023-04-25T14:42:16;4.93;;;2.87;;
6282;SDS011;3174;53.486;9.568;2023-04-25T14:44:43;2.37;;;1.40;;
6282;SDS011;3174;53.486;9.568;2023-04-25T14:47:12;7.53;;;2.80;;
6282;SDS011;3174;53.486;9.568;2023-04-25T14:49:41;2.53;;;1.10;;
6282;SDS011;3174;53.486;9.568;2023-04-25T14:52:09;5.83;;;1.50;;
6282;SDS011;3174;53.486;9.568;2023-04-25T14:54:37;2.37;;;1.20;;
6282;SDS011;3174;53.486;9.568;2023-04-25T14:57:05;3.87;;;1.30;;
6282;SDS011;3174;53.486;9.568;2023-04-25T14:59:33;8.33;;;1.33;;
6282;SDS011;3174;53.486;9.568;2023-04-25T15:02:01;5.37;;;1.10;;
6282;SDS011;3174;53.486;9.568;2023-04-25T15:04:30;4.07;;;1.57;;
6282;SDS011;3174;53.486;9.568;2023-04-25T15:06:59;3.83;;;1.10;;
6282;SDS011;3174;53.486;9.568;2023-04-25T15:09:27;4.13;;;1.67;;
6282;SDS011;3174;53.486;9.568;2023-04-25T15:11:55;3.47;;;1.37;;
6282;SDS011;3174;53.486;9.568;2023-04-25T15:14:24;4.87;;;1.60;;
6282;SDS011;3174;53.486;9.568;2023-04-25T15:16:52;4.87;;;2.00;;
6282;SDS011;3174;53.486;9.568;2023-04-25T15:19:20;4.50;;;1.53;;
6282;SDS011;3174;53.486;9.568;2023-04-25T15:21:48;3.93;;;1.60;;
6282;SDS011;3174;53.486;9.568;2023-04-25T15:24:17;6.77;;;2.03;;